Nearby METAR Reports

 

EDNY - Friedrichshafen, Germany
Distance from station: O 31km
aktuell: 25.07.2016 21:20
geschlossene Wolkendecke
geschlossene Wolkendecke
 Wind von varies
Wind: varies 4 km/h
Temperatur: 22°C
Taupunkt: 19°C
Luftfeuchte: 83%
Luftdruck: 1020 hPa
Clouds: geschlossene Wolkendecke
Visibility: 10 km
Cloud details: Few Clouds 1433 m
geschlossene Wolkendecke 2987 m
2016/07/25 19:20 EDNY 251920Z VRB02KT 9999 FEW047 OVC098 22/19 Q1020
LSZR - Rheineck/Altenrh, Switzerland
Distance from station: SO 42km
aktuell: 25.07.2016 21:50
sehr leichter Niederschlag, Showers
sehr leichter Niederschlag, Showers
 Wind von varies
Wind: varies 2 km/h
Zusammenfassung: sehr leichter Niederschlag, Showers
Visibility: 6 km
2016/07/25 19:50 LSZR 251950Z AUTO VRB01KT 6000 R10/0900U -SHRA BKN/// 21/18 Q1020 RERA
LSZH - Zurich-Kloten (a, Switzerland
Distance from station: WSW 49km
aktuell: 25.07.2016 21:50
Light thunderstorm, Regen, stark bewölkt
Light thunderstorm, Regen, stark bewölkt
 Wind von NO
Wind: NO 6 km/h
Temperatur: 20°C
Taupunkt: 19°C
Luftfeuchte: 94%
Luftdruck: 1021 hPa
Zusammenfassung: Light thunderstorm, Regen
Clouds: stark bewölkt
Visibility: 9 km
Cloud details: Few Clouds 975 m
teilweise bewölkt 1158 m
stark bewölkt 1524 m
2016/07/25 19:50 LSZH 251950Z 05003KT 340V140 9000 -TSRA FEW032 SCT038CB BKN050 20/19 Q1021 TEMPO TSRA
 
EDTD - Donaueschingen, Germany
Distance from station: NW 53km
aktuell: 30.04.2014 18:20
NOT Current
sehr leichter Niederschlag, geschlossene Wolkendecke
sehr leichter Niederschlag, geschlossene Wolkendecke
 Wind von SSW
Wind: SSW 9 km/h
Temperatur: 10°C
gefühlte Temperatur: 9°C
Taupunkt: 10°C
Luftfeuchte: 100%
Luftdruck: 1011 hPa
Zusammenfassung: sehr leichter Niederschlag
Clouds: geschlossene Wolkendecke
Visibility: 9 km
Cloud details: stark bewölkt 213 m
geschlossene Wolkendecke 335 m
2014/04/30 16:20 EDTD 301620Z 20005KT 9000 -RA BKN007 OVC011 10/10 Q1011 LAST ?
ETGZ - Messstetten, Germany
Distance from station: N 54km
aktuell: 30.09.2013 14:20
NOT Current
geschlossene Wolkendecke
geschlossene Wolkendecke
 Wind von varies
Wind: varies 4 km/h
Temperatur: 8°C
Taupunkt: 7°C
Luftfeuchte: 93%
Luftdruck: 1007 hPa
Clouds: geschlossene Wolkendecke
Visibility: 10 km
Cloud details: geschlossene Wolkendecke 213 m
2013/09/30 12:20 ETGZ 301220Z VRB02KT 9999 OVC007 08/07 Q1007 GRN
LOIH - Hohenems-Dornbir, Austria
Distance from station: SO 57km
aktuell: 25.07.2016 15:00
NOT Current
stark bewölkt
stark bewölkt
 Wind von calm
Wind: Windstill
Temperatur: 26°C
Taupunkt: 18°C
Luftfeuchte: 61%
Luftdruck: 1019 hPa
Clouds: stark bewölkt
Cloud details: teilweise bewölkt 1219 m
stark bewölkt 9144 m
2016/07/25 13:00 LOIH 251300Z 00000KT 25KM SCT040CU BKN300CS 26/18 Q1019 RMK BKN
 
ETHL - Laupheim (ger-Ar, Germany
Distance from station: NO 84km
aktuell: 25.07.2016 21:44
Heavy thunderstorm, Regen, stark bewölkt
Heavy thunderstorm, Regen, stark bewölkt
 Wind von SSW
Wind: SSW 13 km/h
Temperatur: 18°C
Taupunkt: 17°C
Luftfeuchte: 94%
Luftdruck: 1022 hPa
Zusammenfassung: Heavy thunderstorm, Regen
Clouds: stark bewölkt
Visibility: 8 km
Cloud details: Few Clouds 457 m
teilweise bewölkt 975 m
stark bewölkt 2743 m
2016/07/25 19:44 ETHL 251944Z 20007KT 8000 +TSRA FEW015 SCT032CB BKN090 18/17 Q1022 BLU
EDJA - Memmingen Allgau, Germany
Distance from station: ONO 90km
aktuell: 25.07.2016 21:50
Nearby thunderstorm, stark bewölkt
Nearby thunderstorm, stark bewölkt
 Wind von calm
Wind: Windstill
Temperatur: 18°C
Taupunkt: 17°C
Luftfeuchte: 94%
Luftdruck: 1022 hPa
Zusammenfassung: Nearby Thunderstorm
Clouds: stark bewölkt
Visibility: 7 km
Cloud details: teilweise bewölkt 1737 m
stark bewölkt 2195 m
stark bewölkt 4267 m
2016/07/25 19:50 EDJA 251950Z 00000KT 7000 VCTS SCT057CB BKN072 BKN140 18/17 Q1022
LSME - Emmen, Switzerland
Distance from station: SW 90km
aktuell: 25.07.2016 21:50
stark bewölkt
stark bewölkt
 Wind von varies
Wind: varies 4 km/h
Temperatur: 22°C
Taupunkt: 19°C
Luftfeuchte: 83%
Luftdruck: 1021 hPa
Clouds: stark bewölkt
Visibility: 16 miles
Cloud details: stark bewölkt 2682 m
2016/07/25 19:50 LSME 251950Z AUTO VRB02KT 9999NDV BKN088 22/19 Q1021 RMK
 
LSZC - Buochs, Switzerland
Distance from station: SSW 98km
aktuell: 25.07.2016 21:50
Thunderstorm
Thunderstorm
 Wind von varies
Wind: varies 9 km/h
Temperatur: 21°C
Taupunkt: 17°C
Luftfeuchte: 78%
Luftdruck: 1021 hPa
Clouds: Thunderstorm
Visibility: 10 km
Cloud details: geschlossene Wolkendecke 2438 m
2016/07/25 19:50 LSZC 251950Z AUTO VRB05KT 9999 OVC080 //////TCU 21/17 Q1021